createdAt,value
2023-02-26T00:01:24.135Z,-1.47
2023-02-26T00:03:52.581Z,-1.58
2023-02-26T00:06:19.979Z,-1.67
2023-02-26T00:08:46.994Z,-1.75
2023-02-26T00:11:14.090Z,-1.86
2023-02-26T00:13:43.868Z,-1.89
2023-02-26T00:16:31.827Z,-1.92
2023-02-26T00:19:01.914Z,-1.79
2023-02-26T00:21:30.817Z,-1.72
2023-02-26T00:23:58.431Z,-1.67
2023-02-26T00:26:27.617Z,-1.65
2023-02-26T00:28:55.015Z,-1.73
2023-02-26T00:31:25.165Z,-1.80
2023-02-26T00:33:57.206Z,-1.60
2023-02-26T00:36:48.424Z,-1.54
2023-02-26T00:39:48.084Z,-1.52
2023-02-26T00:42:16.094Z,-1.60
2023-02-26T00:44:43.328Z,-1.68
2023-02-26T00:47:21.811Z,-1.63
2023-02-26T00:50:03.831Z,-1.75
2023-02-26T00:53:03.312Z,-1.75
2023-02-26T00:55:30.697Z,-1.69
2023-02-26T00:57:57.698Z,-1.74
2023-02-26T01:00:25.155Z,-1.75
2023-02-26T01:02:52.371Z,-1.72
2023-02-26T01:05:19.604Z,-1.75
2023-02-26T01:08:11.379Z,-1.76
2023-02-26T01:10:38.664Z,-1.86
2023-02-26T01:13:05.854Z,-1.81
2023-02-26T01:15:33.464Z,-1.98
2023-02-26T01:18:13.726Z,-2.05
2023-02-26T01:20:47.267Z,-2.17
2023-02-26T01:23:23.340Z,-2.25
2023-02-26T01:25:57.854Z,-2.17
2023-02-26T01:28:26.222Z,-2.17
2023-02-26T01:31:02.484Z,-2.20
2023-02-26T01:33:35.179Z,-2.27
2023-02-26T01:36:28.334Z,-2.28
2023-02-26T01:39:19.626Z,-2.20
2023-02-26T01:41:47.433Z,-2.19
2023-02-26T01:44:30.351Z,-2.15
2023-02-26T01:47:20.011Z,-2.18
2023-02-26T01:49:47.000Z,-2.23
2023-02-26T01:52:31.937Z,-2.26
2023-02-26T01:55:00.852Z,-2.40
2023-02-26T01:57:27.799Z,-2.40
2023-02-26T01:59:54.495Z,-2.38
2023-02-26T02:02:25.659Z,-2.36
2023-02-26T02:04:53.582Z,-2.39
2023-02-26T02:07:20.332Z,-2.35
2023-02-26T02:09:47.668Z,-2.42
2023-02-26T02:12:24.819Z,-2.53
2023-02-26T02:15:19.067Z,-2.54
2023-02-26T02:18:07.998Z,-2.52
2023-02-26T02:21:08.509Z,-2.48
2023-02-26T02:23:41.639Z,-2.58
2023-02-26T02:26:38.041Z,-2.64
2023-02-26T02:29:04.818Z,-2.53
2023-02-26T02:31:57.608Z,-2.51
2023-02-26T02:34:33.838Z,-2.38
2023-02-26T02:37:22.382Z,-2.58
2023-02-26T02:40:15.148Z,-2.60
2023-02-26T02:42:47.096Z,-2.66
2023-02-26T02:45:30.677Z,-2.66
2023-02-26T02:48:06.010Z,-2.69
2023-02-26T02:50:45.094Z,-2.86
2023-02-26T02:53:21.212Z,-2.82
2023-02-26T02:55:55.001Z,-2.71
2023-02-26T02:58:30.442Z,-2.60
2023-02-26T03:01:03.436Z,-2.71
2023-02-26T03:03:50.477Z,-2.81
2023-02-26T03:06:17.891Z,-2.90
2023-02-26T03:08:47.732Z,-2.87
2023-02-26T03:11:16.162Z,-2.82
2023-02-26T03:13:45.699Z,-2.81
2023-02-26T03:16:47.147Z,-2.79
2023-02-26T03:19:29.672Z,-2.76
2023-02-26T03:21:58.798Z,-2.83
2023-02-26T03:25:06.439Z,-2.88
2023-02-26T03:27:33.412Z,-2.93
2023-02-26T03:30:03.501Z,-2.96
2023-02-26T03:32:45.203Z,-3.02
2023-02-26T03:35:17.148Z,-3.09
2023-02-26T03:37:50.457Z,-3.11
2023-02-26T03:40:24.686Z,-3.06
2023-02-26T03:43:08.563Z,-2.99
2023-02-26T03:45:39.583Z,-2.95
2023-02-26T03:48:10.825Z,-3.10
2023-02-26T03:50:43.546Z,-3.16
2023-02-26T03:53:34.760Z,-3.25
2023-02-26T03:56:15.081Z,-3.22
2023-02-26T03:59:05.333Z,-3.35
2023-02-26T04:02:14.365Z,-3.37
2023-02-26T04:04:49.507Z,-3.46
2023-02-26T04:07:18.345Z,-3.48
2023-02-26T04:09:47.675Z,-3.52
2023-02-26T04:12:15.050Z,-3.53
2023-02-26T04:14:46.652Z,-3.66
2023-02-26T04:17:13.378Z,-3.63
2023-02-26T04:19:40.195Z,-3.67
2023-02-26T04:22:06.970Z,-3.70
2023-02-26T04:24:33.699Z,-3.69
2023-02-26T04:27:02.015Z,-3.60
2023-02-26T04:29:30.359Z,-3.65
2023-02-26T04:31:57.544Z,-3.72
2023-02-26T04:34:24.754Z,-3.70
2023-02-26T04:36:52.531Z,-3.73
2023-02-26T04:39:19.973Z,-3.84
2023-02-26T04:41:46.630Z,-3.87
2023-02-26T04:44:13.364Z,-3.78
2023-02-26T04:46:41.762Z,-3.90
2023-02-26T04:49:08.477Z,-3.87
2023-02-26T04:51:36.737Z,-4.01
2023-02-26T04:54:04.325Z,-4.09
2023-02-26T04:56:32.615Z,-3.91
2023-02-26T04:59:01.103Z,-3.86
2023-02-26T05:01:30.053Z,-3.93
2023-02-26T05:03:58.228Z,-3.92
2023-02-26T05:06:25.244Z,-4.02
2023-02-26T05:08:52.098Z,-4.05
2023-02-26T05:11:20.351Z,-4.07
2023-02-26T05:13:47.861Z,-4.06
2023-02-26T05:16:14.650Z,-4.00
2023-02-26T05:18:41.631Z,-4.10
2023-02-26T05:21:08.336Z,-4.06
2023-02-26T05:23:35.179Z,-4.08
2023-02-26T05:26:01.855Z,-4.12
2023-02-26T05:28:28.683Z,-4.13
2023-02-26T05:30:57.779Z,-4.11
2023-02-26T05:33:25.543Z,-4.24
2023-02-26T05:35:52.891Z,-4.10
2023-02-26T05:38:20.414Z,-4.10
2023-02-26T05:40:47.155Z,-4.12
2023-02-26T05:43:13.798Z,-4.03
2023-02-26T05:45:40.405Z,-3.88
2023-02-26T05:48:07.312Z,-3.75
2023-02-26T05:50:34.098Z,-3.75
2023-02-26T05:53:01.010Z,-3.84
2023-02-26T05:55:27.686Z,-3.74
2023-02-26T05:57:54.302Z,-3.70
2023-02-26T06:00:21.143Z,-3.68
2023-02-26T06:02:47.833Z,-3.72
2023-02-26T06:05:14.596Z,-3.74
2023-02-26T06:07:41.508Z,-3.64
2023-02-26T06:10:09.289Z,-3.74
2023-02-26T06:12:36.679Z,-3.66
2023-02-26T06:15:04.736Z,-3.69
2023-02-26T06:17:31.431Z,-3.62
2023-02-26T06:19:58.141Z,-3.53
2023-02-26T06:22:24.826Z,-3.41
2023-02-26T06:24:51.550Z,-3.46
2023-02-26T06:27:18.201Z,-3.57
2023-02-26T06:29:44.864Z,-3.59
2023-02-26T06:32:11.570Z,-3.58
2023-02-26T06:34:38.569Z,-3.54
2023-02-26T06:37:05.312Z,-3.57
2023-02-26T06:39:31.999Z,-3.47
2023-02-26T06:41:58.974Z,-3.24
2023-02-26T06:44:25.690Z,-3.20
2023-02-26T06:46:52.652Z,-3.08
2023-02-26T06:49:19.384Z,-3.13
2023-02-26T06:51:45.991Z,-3.12
2023-02-26T06:54:12.619Z,-3.07
2023-02-26T06:56:39.620Z,-3.13
2023-02-26T06:59:06.328Z,-3.33
2023-02-26T07:01:33.086Z,-3.18
2023-02-26T07:03:59.889Z,-3.04
2023-02-26T07:06:28.096Z,-3.10
2023-02-26T07:08:56.002Z,-3.05
2023-02-26T07:11:23.059Z,-2.98
2023-02-26T07:13:51.481Z,-2.70
2023-02-26T07:16:18.390Z,-2.26
2023-02-26T07:18:45.128Z,-2.21
2023-02-26T07:21:11.776Z,-1.80
2023-02-26T07:23:38.694Z,-1.90
2023-02-26T07:26:05.407Z,-1.96
2023-02-26T07:28:32.043Z,-2.11
2023-02-26T07:30:58.915Z,-2.26
2023-02-26T07:33:26.657Z,-2.32
2023-02-26T07:35:53.357Z,-2.33
2023-02-26T07:38:20.418Z,-2.39
2023-02-26T07:40:47.429Z,-2.63
2023-02-26T07:43:14.301Z,-2.38
2023-02-26T07:45:40.951Z,-2.18
2023-02-26T07:48:07.637Z,-2.07
2023-02-26T07:50:34.307Z,-1.60
2023-02-26T07:53:00.975Z,-1.69
2023-02-26T07:55:27.842Z,-1.52
2023-02-26T07:57:54.492Z,-1.00
2023-02-26T08:00:21.589Z,-0.89
2023-02-26T08:02:48.404Z,-0.96
2023-02-26T08:05:15.189Z,-0.91
2023-02-26T08:07:42.109Z,-0.67
2023-02-26T08:10:10.275Z,-0.50
2023-02-26T08:12:37.010Z,-0.98
2023-02-26T08:15:05.196Z,-1.34
2023-02-26T08:17:31.876Z,-1.63
2023-02-26T08:19:58.500Z,-1.36
2023-02-26T08:22:25.168Z,-1.54
2023-02-26T08:24:51.831Z,-1.19
2023-02-26T08:27:18.537Z,-1.42
2023-02-26T08:29:46.375Z,-1.08
2023-02-26T08:32:15.810Z,-1.36
2023-02-26T08:34:42.633Z,-1.73
2023-02-26T08:37:11.574Z,-1.97
2023-02-26T08:39:39.095Z,-1.84
2023-02-26T08:42:07.367Z,-1.86
2023-02-26T08:44:34.760Z,-1.66
2023-02-26T08:47:01.807Z,-1.74
2023-02-26T08:49:28.501Z,-1.60
2023-02-26T08:51:55.155Z,-1.47
2023-02-26T08:54:21.855Z,-1.43
2023-02-26T08:56:48.575Z,-1.63
2023-02-26T08:59:15.246Z,-1.61
2023-02-26T09:01:42.074Z,-1.92
2023-02-26T09:04:08.828Z,-1.93
2023-02-26T09:06:35.772Z,-1.88
2023-02-26T09:09:02.690Z,-1.89
2023-02-26T09:11:30.797Z,-1.90
2023-02-26T09:13:59.064Z,-1.64
2023-02-26T09:16:26.956Z,-1.50
2023-02-26T09:18:56.135Z,-1.40
2023-02-26T09:21:23.234Z,-1.40
2023-02-26T09:23:50.176Z,-1.43
2023-02-26T09:26:16.822Z,-1.51
2023-02-26T09:28:43.814Z,-1.87
2023-02-26T09:31:10.599Z,-2.07
2023-02-26T09:33:37.372Z,-2.17
2023-02-26T09:36:04.368Z,-2.24
2023-02-26T09:38:31.097Z,-2.26
2023-02-26T09:41:02.354Z,-2.40
2023-02-26T09:43:41.132Z,-2.44
2023-02-26T09:46:26.153Z,-2.31
2023-02-26T09:49:05.762Z,-2.30
2023-02-26T09:51:35.955Z,-2.25
2023-02-26T09:54:16.021Z,-2.25
2023-02-26T09:56:44.497Z,-2.27
2023-02-26T09:59:11.939Z,-2.16
2023-02-26T10:01:46.421Z,-2.10
2023-02-26T10:04:39.477Z,-1.80
2023-02-26T10:07:06.021Z,-1.61
2023-02-26T10:09:41.469Z,-1.47
2023-02-26T10:12:13.709Z,-1.46
2023-02-26T10:14:50.910Z,-1.28
2023-02-26T10:18:01.918Z,-1.23
2023-02-26T10:20:46.822Z,-1.15
2023-02-26T10:23:19.566Z,-1.00
2023-02-26T10:25:46.696Z,-0.99
2023-02-26T10:28:41.814Z,-0.94
2023-02-26T10:31:26.961Z,-0.92
2023-02-26T10:34:19.718Z,-1.18
2023-02-26T10:37:15.653Z,-1.28
2023-02-26T10:39:46.822Z,-1.21
2023-02-26T10:42:18.544Z,-0.97
2023-02-26T10:45:06.752Z,-0.56
2023-02-26T10:47:51.764Z,-0.45
2023-02-26T10:50:21.246Z,-0.20
2023-02-26T10:52:50.459Z,-0.05
2023-02-26T10:55:37.983Z,-0.43
2023-02-26T10:58:21.527Z,-0.72
2023-02-26T11:00:50.975Z,-0.75
2023-02-26T11:03:29.001Z,-0.93
2023-02-26T11:05:56.881Z,-1.04
2023-02-26T11:08:48.875Z,-1.22
2023-02-26T11:11:40.459Z,-1.29
2023-02-26T11:14:08.730Z,-1.49
2023-02-26T11:16:41.382Z,-1.50
2023-02-26T11:19:09.146Z,-1.53
2023-02-26T11:21:40.958Z,-1.54
2023-02-26T11:24:29.654Z,-1.50
2023-02-26T11:26:58.432Z,-1.43
2023-02-26T11:29:26.001Z,-1.57
2023-02-26T11:31:55.515Z,-1.75
2023-02-26T11:34:24.319Z,-1.77
2023-02-26T11:36:53.440Z,-1.76
2023-02-26T11:39:26.944Z,-1.90
2023-02-26T11:41:57.653Z,-1.85
2023-02-26T11:44:40.275Z,-1.87
2023-02-26T11:47:07.885Z,-1.86
2023-02-26T11:49:34.648Z,-1.90
2023-02-26T11:52:10.563Z,-1.84
2023-02-26T11:54:39.573Z,-1.89
2023-02-26T11:57:11.613Z,-1.69
2023-02-26T11:59:40.203Z,-1.79
2023-02-26T12:02:15.182Z,-1.86
2023-02-26T12:04:49.909Z,-1.84
2023-02-26T12:07:17.949Z,-1.72
2023-02-26T12:09:45.738Z,-1.63
2023-02-26T12:12:15.416Z,-1.56
2023-02-26T12:15:11.812Z,-1.59
2023-02-26T12:17:57.622Z,-1.47
2023-02-26T12:20:40.540Z,-1.14
2023-02-26T12:23:14.387Z,-0.87
2023-02-26T12:25:53.326Z,-1.33
2023-02-26T12:28:43.201Z,-1.43
2023-02-26T12:31:15.992Z,-1.45
2023-02-26T12:33:57.490Z,-1.29
2023-02-26T12:36:49.803Z,-1.22
2023-02-26T12:39:37.756Z,-1.12
2023-02-26T12:42:25.213Z,-1.15
2023-02-26T12:45:12.188Z,-1.06
2023-02-26T12:48:06.825Z,-1.10
2023-02-26T12:50:45.390Z,-1.10
2023-02-26T12:53:14.738Z,-1.07
2023-02-26T12:55:47.323Z,-1.16
2023-02-26T12:58:51.703Z,-1.23
2023-02-26T13:01:37.738Z,-1.12
2023-02-26T13:04:18.450Z,-1.05
2023-02-26T13:06:54.244Z,-1.02
2023-02-26T13:09:33.245Z,-1.10
2023-02-26T13:12:09.652Z,-1.17
2023-02-26T13:14:51.435Z,-1.09
2023-02-26T13:17:29.423Z,-1.22
2023-02-26T13:20:01.541Z,-0.98
2023-02-26T13:22:38.325Z,-0.72
2023-02-26T13:25:18.262Z,-0.55
2023-02-26T13:27:46.372Z,-0.50
2023-02-26T13:30:12.959Z,-0.01
2023-02-26T13:32:42.656Z,0.02
2023-02-26T13:35:29.673Z,0.15
2023-02-26T13:37:58.749Z,0.19
2023-02-26T13:41:02.904Z,0.73
2023-02-26T13:43:54.651Z,0.55
2023-02-26T13:46:42.450Z,0.62
2023-02-26T13:49:15.059Z,1.25
2023-02-26T13:51:49.209Z,1.53
2023-02-26T13:54:21.958Z,1.50
2023-02-26T13:57:25.895Z,0.69
2023-02-26T14:00:21.974Z,0.09
2023-02-26T14:03:11.005Z,0.51
2023-02-26T14:05:46.864Z,0.81
2023-02-26T14:08:28.312Z,0.92
2023-02-26T14:11:05.486Z,0.89
2023-02-26T14:13:41.796Z,1.12
2023-02-26T14:16:23.566Z,1.04
2023-02-26T14:18:52.126Z,0.95
2023-02-26T14:21:28.059Z,0.82
2023-02-26T14:24:01.573Z,0.76
2023-02-26T14:26:36.436Z,0.62
2023-02-26T14:29:06.120Z,0.64
2023-02-26T14:31:51.312Z,0.73
2023-02-26T14:34:32.688Z,0.98
2023-02-26T14:37:02.735Z,1.29
2023-02-26T14:39:34.887Z,1.26
2023-02-26T14:42:06.220Z,1.00
2023-02-26T14:44:41.049Z,0.70
2023-02-26T14:47:09.637Z,0.54
2023-02-26T14:49:38.919Z,0.04
2023-02-26T14:52:43.793Z,-0.09
2023-02-26T14:55:54.191Z,-0.31
2023-02-26T14:58:54.868Z,-0.56
2023-02-26T15:01:54.093Z,-0.97
2023-02-26T15:04:48.543Z,-1.35
2023-02-26T15:07:39.601Z,-1.44
2023-02-26T15:10:36.642Z,-1.38
2023-02-26T15:13:24.929Z,-1.34
2023-02-26T15:16:08.633Z,-1.36
2023-02-26T15:18:38.537Z,-1.33
2023-02-26T15:21:20.293Z,-1.42
2023-02-26T15:23:50.631Z,-1.49
2023-02-26T15:26:23.104Z,-1.50
2023-02-26T15:28:50.228Z,-1.46
2023-02-26T15:31:20.908Z,-1.50
2023-02-26T15:33:49.386Z,-1.38
2023-02-26T15:36:21.844Z,-1.24
2023-02-26T15:38:53.716Z,-1.18
2023-02-26T15:41:20.965Z,-1.32
2023-02-26T15:44:10.811Z,-1.48
2023-02-26T15:46:43.913Z,-1.66
2023-02-26T15:49:17.650Z,-1.76
2023-02-26T15:51:45.591Z,-1.88
2023-02-26T15:54:18.123Z,-1.94
2023-02-26T15:56:44.855Z,-1.92
2023-02-26T15:59:17.614Z,-1.96
2023-02-26T16:01:44.659Z,-1.98
2023-02-26T16:04:14.924Z,-1.78
2023-02-26T16:06:47.287Z,-1.67
2023-02-26T16:09:28.002Z,-1.68
2023-02-26T16:12:01.082Z,-1.68
2023-02-26T16:14:34.584Z,-1.71
2023-02-26T16:17:01.681Z,-1.77
2023-02-26T16:19:48.835Z,-1.81
2023-02-26T16:22:33.200Z,-1.73
2023-02-26T16:25:05.942Z,-1.85
2023-02-26T16:27:34.450Z,-1.81
2023-02-26T16:30:03.825Z,-1.80
2023-02-26T16:32:34.226Z,-1.76
2023-02-26T16:35:10.580Z,-1.67
2023-02-26T16:37:37.998Z,-1.70
2023-02-26T16:40:10.764Z,-1.76
2023-02-26T16:42:53.020Z,-1.68
2023-02-26T16:45:26.321Z,-1.80
2023-02-26T16:47:57.361Z,-1.91
2023-02-26T16:50:28.667Z,-1.97
2023-02-26T16:53:15.085Z,-2.06
2023-02-26T16:55:47.392Z,-2.14
2023-02-26T16:58:16.010Z,-2.19
2023-02-26T17:00:50.575Z,-2.16
2023-02-26T17:03:25.121Z,-2.11
2023-02-26T17:06:05.174Z,-1.98
2023-02-26T17:08:36.481Z,-1.97
2023-02-26T17:11:07.378Z,-2.00
2023-02-26T17:13:35.458Z,-2.03
2023-02-26T17:16:07.786Z,-1.92
2023-02-26T17:18:34.402Z,-1.97
2023-02-26T17:21:10.119Z,-2.13
2023-02-26T17:23:38.752Z,-2.07
2023-02-26T17:26:06.241Z,-2.09
2023-02-26T17:28:36.170Z,-2.07
2023-02-26T17:31:04.216Z,-2.10
2023-02-26T17:33:30.929Z,-2.22
2023-02-26T17:36:00.917Z,-2.06
2023-02-26T17:38:28.448Z,-2.04
2023-02-26T17:40:55.781Z,-2.19
2023-02-26T17:43:23.172Z,-2.28
2023-02-26T17:45:50.636Z,-2.41
2023-02-26T17:48:17.808Z,-2.54
2023-02-26T17:50:48.647Z,-2.68
2023-02-26T17:53:16.396Z,-2.63
2023-02-26T17:55:43.675Z,-2.68
2023-02-26T17:58:20.902Z,-2.62
2023-02-26T18:00:50.172Z,-2.65
2023-02-26T18:03:17.432Z,-2.71
2023-02-26T18:05:44.536Z,-2.67
2023-02-26T18:08:36.334Z,-2.70
2023-02-26T18:11:04.172Z,-2.73
2023-02-26T18:13:31.317Z,-2.72
2023-02-26T18:15:58.949Z,-2.68
2023-02-26T18:18:26.102Z,-2.76
2023-02-26T18:20:53.932Z,-2.81
2023-02-26T18:23:20.577Z,-2.76
2023-02-26T18:25:49.491Z,-2.89
2023-02-26T18:28:22.030Z,-2.81
2023-02-26T18:30:49.541Z,-2.81
2023-02-26T18:33:19.036Z,-2.83
2023-02-26T18:35:50.081Z,-2.85
2023-02-26T18:38:20.653Z,-2.89
2023-02-26T18:40:48.807Z,-2.93
2023-02-26T18:43:15.600Z,-2.92
2023-02-26T18:45:46.029Z,-2.85
2023-02-26T18:48:16.037Z,-2.84
2023-02-26T18:50:44.402Z,-2.89
2023-02-26T18:53:11.251Z,-2.85
2023-02-26T18:55:38.447Z,-2.85
2023-02-26T18:58:05.244Z,-2.90
2023-02-26T19:00:32.261Z,-2.97
2023-02-26T19:02:58.962Z,-3.00
2023-02-26T19:05:26.747Z,-2.94
2023-02-26T19:07:55.035Z,-3.05
2023-02-26T19:10:22.492Z,-3.00
2023-02-26T19:12:50.939Z,-3.02
2023-02-26T19:15:18.193Z,-3.04
2023-02-26T19:17:45.275Z,-3.10
2023-02-26T19:20:13.707Z,-3.13
2023-02-26T19:22:41.959Z,-3.22
2023-02-26T19:25:09.580Z,-3.30
2023-02-26T19:27:37.270Z,-3.34
2023-02-26T19:30:05.673Z,-3.40
2023-02-26T19:32:32.644Z,-3.50
2023-02-26T19:34:59.666Z,-3.49
2023-02-26T19:37:26.721Z,-3.59
2023-02-26T19:39:53.366Z,-3.58
2023-02-26T19:42:20.225Z,-3.60
2023-02-26T19:44:46.934Z,-3.59
2023-02-26T19:47:13.551Z,-3.61
2023-02-26T19:49:40.198Z,-3.65
2023-02-26T19:52:08.257Z,-3.64
2023-02-26T19:54:34.972Z,-3.61
2023-02-26T19:57:01.625Z,-3.65
2023-02-26T19:59:28.325Z,-3.63
2023-02-26T20:01:55.031Z,-3.70
2023-02-26T20:04:22.018Z,-3.69
2023-02-26T20:06:48.635Z,-3.69
2023-02-26T20:09:16.131Z,-3.85
2023-02-26T20:11:43.332Z,-3.79
2023-02-26T20:14:09.989Z,-3.84
2023-02-26T20:16:36.719Z,-3.72
2023-02-26T20:19:03.395Z,-3.76
2023-02-26T20:21:30.055Z,-3.83
2023-02-26T20:23:57.702Z,-3.70
2023-02-26T20:26:24.383Z,-3.73
2023-02-26T20:28:51.113Z,-3.63
2023-02-26T20:31:17.902Z,-3.60
2023-02-26T20:33:44.923Z,-3.60
2023-02-26T20:36:11.833Z,-3.58
2023-02-26T20:38:38.571Z,-3.61
2023-02-26T20:41:05.552Z,-3.61
2023-02-26T20:43:33.112Z,-3.72
2023-02-26T20:46:00.033Z,-3.56
2023-02-26T20:48:27.087Z,-3.58
2023-02-26T20:50:59.983Z,-3.53
2023-02-26T20:53:26.996Z,-3.52
2023-02-26T20:55:55.635Z,-3.61
2023-02-26T20:58:23.900Z,-3.52
2023-02-26T21:00:51.349Z,-3.65
2023-02-26T21:03:18.072Z,-3.70
2023-02-26T21:05:46.438Z,-3.70
2023-02-26T21:08:13.957Z,-3.63
2023-02-26T21:10:43.514Z,-3.67
2023-02-26T21:13:10.273Z,-3.62
2023-02-26T21:15:37.013Z,-3.64
2023-02-26T21:18:03.992Z,-3.65
2023-02-26T21:20:30.770Z,-3.64
2023-02-26T21:22:57.555Z,-3.65
2023-02-26T21:25:24.609Z,-3.68
2023-02-26T21:27:51.568Z,-3.59
2023-02-26T21:30:19.860Z,-3.60
2023-02-26T21:32:46.510Z,-3.63
2023-02-26T21:35:16.006Z,-3.67
2023-02-26T21:37:46.235Z,-3.68
2023-02-26T21:40:15.673Z,-3.79
2023-02-26T21:42:42.991Z,-3.76
2023-02-26T21:45:10.424Z,-3.75
2023-02-26T21:47:37.615Z,-3.85
2023-02-26T21:50:05.649Z,-3.86
2023-02-26T21:52:32.457Z,-3.89
2023-02-26T21:54:59.167Z,-3.95
2023-02-26T21:57:27.121Z,-3.93
2023-02-26T21:59:53.905Z,-4.00
2023-02-26T22:02:20.896Z,-4.05
2023-02-26T22:04:47.665Z,-4.06
2023-02-26T22:07:14.347Z,-4.12
2023-02-26T22:09:41.831Z,-4.13
2023-02-26T22:12:08.525Z,-4.23
2023-02-26T22:14:35.324Z,-4.18
2023-02-26T22:17:02.078Z,-4.20
2023-02-26T22:19:28.703Z,-4.24
2023-02-26T22:21:55.345Z,-4.25
2023-02-26T22:24:22.073Z,-4.26
2023-02-26T22:26:49.482Z,-4.23
2023-02-26T22:29:18.321Z,-4.27
2023-02-26T22:31:47.530Z,-4.33
2023-02-26T22:34:14.620Z,-4.31
2023-02-26T22:36:41.389Z,-4.25
2023-02-26T22:39:08.255Z,-4.22
2023-02-26T22:41:36.767Z,-4.24
2023-02-26T22:44:04.800Z,-4.26
2023-02-26T22:46:32.357Z,-4.31
2023-02-26T22:48:59.143Z,-4.34
2023-02-26T22:51:26.103Z,-4.40
2023-02-26T22:53:53.030Z,-4.34
2023-02-26T22:56:19.714Z,-4.33
2023-02-26T22:58:46.357Z,-4.31
2023-02-26T23:01:13.332Z,-4.35
2023-02-26T23:03:40.008Z,-4.35
2023-02-26T23:06:07.569Z,-4.36
2023-02-26T23:08:34.648Z,-4.53
2023-02-26T23:11:02.514Z,-4.45
2023-02-26T23:13:30.811Z,-4.31
2023-02-26T23:15:58.157Z,-4.29
2023-02-26T23:18:25.152Z,-4.25
2023-02-26T23:20:51.943Z,-4.24
2023-02-26T23:23:18.651Z,-4.26
2023-02-26T23:25:45.775Z,-4.27
2023-02-26T23:28:12.412Z,-4.22
2023-02-26T23:30:39.420Z,-4.24
2023-02-26T23:33:07.279Z,-4.25
2023-02-26T23:35:35.244Z,-4.33
2023-02-26T23:38:02.080Z,-4.47
2023-02-26T23:40:28.949Z,-4.40
2023-02-26T23:42:56.205Z,-4.46
2023-02-26T23:45:23.371Z,-4.43
2023-02-26T23:47:50.117Z,-4.47
2023-02-26T23:50:17.079Z,-4.52
2023-02-26T23:52:43.723Z,-4.52
2023-02-26T23:55:11.065Z,-4.50
2023-02-26T23:57:37.917Z,-4.44
